createdAt,value
2023-01-04T00:07:48.004Z,6.31
2023-01-04T00:17:50.724Z,6.20
2023-01-04T00:27:55.895Z,5.93
2023-01-04T00:38:02.289Z,5.78
2023-01-04T00:48:04.577Z,5.61
2023-01-04T01:08:36.930Z,5.30
2023-01-04T01:18:46.058Z,5.12
2023-01-04T01:28:49.675Z,4.98
2023-01-04T01:38:51.797Z,4.89
2023-01-04T01:49:04.143Z,4.55
2023-01-04T01:59:09.712Z,4.38
2023-01-04T02:09:15.517Z,4.25
2023-01-04T02:19:36.056Z,4.29
2023-01-04T02:30:08.283Z,4.32
2023-01-04T02:40:19.156Z,4.41
2023-01-04T02:50:33.602Z,4.67
2023-01-04T03:01:13.432Z,4.69
2023-01-04T03:11:36.789Z,4.32
2023-01-04T03:21:44.399Z,3.85
2023-01-04T03:32:21.167Z,3.80
2023-01-04T03:42:52.333Z,3.69
2023-01-04T03:52:56.809Z,3.47
2023-01-04T04:03:07.562Z,3.21
2023-01-04T04:13:09.537Z,2.93
2023-01-04T04:23:11.348Z,2.89
2023-01-04T04:33:13.231Z,2.73
2023-01-04T04:43:15.150Z,2.32
2023-01-04T04:53:19.662Z,2.33
2023-01-04T05:03:22.451Z,2.33
2023-01-04T05:13:24.505Z,2.08
2023-01-04T05:23:27.319Z,1.85
2023-01-04T05:33:32.573Z,1.72
2023-01-04T05:43:36.332Z,1.67
2023-01-04T05:53:39.090Z,1.59
2023-01-04T06:03:41.938Z,1.38
2023-01-04T06:13:49.926Z,1.20
2023-01-04T06:23:53.202Z,1.25
2023-01-04T06:33:56.435Z,1.42
2023-01-04T06:43:58.487Z,1.37
2023-01-04T06:54:00.190Z,1.34
2023-01-04T07:04:02.154Z,1.49
2023-01-04T07:14:05.792Z,1.74
2023-01-04T07:24:07.485Z,2.03
2023-01-04T07:34:09.423Z,2.56
2023-01-04T07:44:12.208Z,3.18
2023-01-04T07:54:15.518Z,3.57
2023-01-04T08:04:19.009Z,4.38
2023-01-04T08:14:23.363Z,5.06
2023-01-04T08:24:25.146Z,5.43
2023-01-04T08:34:26.866Z,6.19
2023-01-04T08:44:36.263Z,7.11
2023-01-04T08:54:37.968Z,7.01
2023-01-04T09:04:40.041Z,8.33
2023-01-04T09:14:42.108Z,9.05
2023-01-04T09:24:45.938Z,10.75
2023-01-04T09:34:56.721Z,13.13
2023-01-04T09:45:24.821Z,15.09
2023-01-04T09:55:39.387Z,15.00
2023-01-04T10:05:54.862Z,16.00
2023-01-04T10:16:15.127Z,18.73
2023-01-04T10:26:37.642Z,17.33
2023-01-04T10:36:42.029Z,18.26
2023-01-04T10:46:50.008Z,19.05
2023-01-04T10:57:12.562Z,18.95
2023-01-04T11:07:23.938Z,17.78
2023-01-04T11:17:26.269Z,18.51
2023-01-04T11:27:32.743Z,18.58
2023-01-04T11:37:41.634Z,16.10
2023-01-04T11:47:55.868Z,19.65
2023-01-04T11:58:28.114Z,21.87
2023-01-04T12:08:33.281Z,21.84
2023-01-04T12:18:40.073Z,21.10
2023-01-04T12:29:09.703Z,22.19
2023-01-04T12:39:23.389Z,15.48
2023-01-04T12:49:29.177Z,13.06
2023-01-04T12:59:38.817Z,13.60
2023-01-04T13:09:51.753Z,13.14
2023-01-04T13:19:54.831Z,14.78
2023-01-04T13:29:56.687Z,17.68
2023-01-04T13:40:29.156Z,14.67
2023-01-04T13:50:49.734Z,11.70
2023-01-04T14:00:58.586Z,9.67
2023-01-04T14:11:51.075Z,9.77
2023-01-04T14:21:52.948Z,9.79
2023-01-04T14:31:54.671Z,9.22
2023-01-04T14:41:57.774Z,8.41
2023-01-04T14:52:02.712Z,7.51
2023-01-04T15:02:06.905Z,7.01
2023-01-04T15:12:08.845Z,6.59
2023-01-04T15:22:20.493Z,6.30
2023-01-04T15:32:23.765Z,6.09
2023-01-04T15:42:44.489Z,5.98
2023-01-04T15:52:46.315Z,5.48
2023-01-04T16:02:48.344Z,4.95
2023-01-04T16:12:57.175Z,4.77
2023-01-04T16:23:02.184Z,4.68
2023-01-04T16:33:06.324Z,4.48
2023-01-04T16:43:17.428Z,4.30
2023-01-04T16:53:20.100Z,3.88
2023-01-04T17:03:25.255Z,3.83
2023-01-04T17:13:30.489Z,3.68
2023-01-04T17:23:34.411Z,3.55
2023-01-04T17:33:38.741Z,3.52
2023-01-04T17:43:44.672Z,3.45
2023-01-04T17:53:48.848Z,3.32
2023-01-04T18:03:54.051Z,3.24
2023-01-04T18:13:57.667Z,3.21
2023-01-04T18:34:27.293Z,3.02
2023-01-04T18:44:34.402Z,2.93
2023-01-04T18:54:39.138Z,3.06
2023-01-04T19:04:41.442Z,3.05
2023-01-04T19:14:44.101Z,3.16
2023-01-04T19:24:53.053Z,3.24
2023-01-04T19:34:55.646Z,3.33
2023-01-04T19:44:59.237Z,3.61
2023-01-04T19:55:03.532Z,3.74
2023-01-04T20:05:10.394Z,3.57
2023-01-04T20:15:15.913Z,3.49
2023-01-04T20:25:18.873Z,3.55
2023-01-04T20:35:25.185Z,3.71
2023-01-04T20:45:29.055Z,3.74
2023-01-04T20:55:38.942Z,3.87
2023-01-04T21:05:44.361Z,4.10
2023-01-04T21:15:46.744Z,4.18
2023-01-04T21:25:52.666Z,4.18
2023-01-04T21:35:57.352Z,4.22
2023-01-04T21:46:08.157Z,4.28
2023-01-04T21:56:16.152Z,4.37
2023-01-04T22:06:20.784Z,4.14
2023-01-04T22:16:25.401Z,4.02
2023-01-04T22:26:28.435Z,4.02
2023-01-04T22:36:30.175Z,4.09
2023-01-04T22:46:34.093Z,4.19
2023-01-04T22:56:35.975Z,4.40
2023-01-04T23:06:39.341Z,4.62
2023-01-04T23:16:41.440Z,4.84
2023-01-04T23:26:47.292Z,5.17
2023-01-04T23:36:49.740Z,5.37
2023-01-04T23:57:05.782Z,5.36
